sensor_id;sensor_type;location;lat;lon;timestamp;P1;durP1;ratioP1;P2;durP2;ratioP2
5014;SDS011;2526;51.060;4.228;2023-06-22T00:00:27;2.20;;;1.58;;
5014;SDS011;2526;51.060;4.228;2023-06-22T00:02:52;4.05;;;2.55;;
5014;SDS011;2526;51.060;4.228;2023-06-22T00:05:18;2.17;;;1.45;;
5014;SDS011;2526;51.060;4.228;2023-06-22T00:07:43;3.00;;;1.80;;
5014;SDS011;2526;51.060;4.228;2023-06-22T00:10:09;2.80;;;1.55;;
5014;SDS011;2526;51.060;4.228;2023-06-22T00:12:34;2.42;;;1.85;;
5014;SDS011;2526;51.060;4.228;2023-06-22T00:15:00;3.13;;;1.80;;
5014;SDS011;2526;51.060;4.228;2023-06-22T00:17:25;4.03;;;2.08;;
5014;SDS011;2526;51.060;4.228;2023-06-22T00:19:50;3.65;;;1.38;;
5014;SDS011;2526;51.060;4.228;2023-06-22T00:22:19;2.13;;;1.70;;
5014;SDS011;2526;51.060;4.228;2023-06-22T00:24:53;4.68;;;2.30;;
5014;SDS011;2526;51.060;4.228;2023-06-22T00:27:18;2.40;;;1.52;;
5014;SDS011;2526;51.060;4.228;2023-06-22T00:29:44;2.13;;;1.50;;
5014;SDS011;2526;51.060;4.228;2023-06-22T00:32:09;3.53;;;1.52;;
5014;SDS011;2526;51.060;4.228;2023-06-22T00:34:35;3.10;;;1.85;;
5014;SDS011;2526;51.060;4.228;2023-06-22T00:37:00;2.67;;;1.58;;
5014;SDS011;2526;51.060;4.228;2023-06-22T00:39:26;2.75;;;1.83;;
5014;SDS011;2526;51.060;4.228;2023-06-22T00:41:51;2.15;;;1.88;;
5014;SDS011;2526;51.060;4.228;2023-06-22T00:44:16;3.63;;;1.98;;
5014;SDS011;2526;51.060;4.228;2023-06-22T00:46:42;3.50;;;2.00;;
5014;SDS011;2526;51.060;4.228;2023-06-22T00:49:07;4.50;;;1.80;;
5014;SDS011;2526;51.060;4.228;2023-06-22T00:51:33;4.60;;;2.53;;
5014;SDS011;2526;51.060;4.228;2023-06-22T00:53:58;3.15;;;1.58;;
5014;SDS011;2526;51.060;4.228;2023-06-22T00:56:24;3.25;;;2.00;;
5014;SDS011;2526;51.060;4.228;2023-06-22T00:58:49;1.85;;;1.38;;
5014;SDS011;2526;51.060;4.228;2023-06-22T01:01:18;4.18;;;2.20;;
5014;SDS011;2526;51.060;4.228;2023-06-22T01:03:48;2.90;;;1.70;;
5014;SDS011;2526;51.060;4.228;2023-06-22T01:06:18;3.70;;;2.60;;
5014;SDS011;2526;51.060;4.228;2023-06-22T01:08:49;2.72;;;2.00;;
5014;SDS011;2526;51.060;4.228;2023-06-22T01:11:21;3.08;;;2.40;;
5014;SDS011;2526;51.060;4.228;2023-06-22T01:18:42;3.10;;;2.13;;
5014;SDS011;2526;51.060;4.228;2023-06-22T01:21:09;7.78;;;1.83;;
5014;SDS011;2526;51.060;4.228;2023-06-22T01:26:22;3.90;;;2.92;;
5014;SDS011;2526;51.060;4.228;2023-06-22T01:28:56;3.25;;;2.17;;
5014;SDS011;2526;51.060;4.228;2023-06-22T01:31:26;4.30;;;2.42;;
5014;SDS011;2526;51.060;4.228;2023-06-22T01:34:04;4.47;;;2.47;;
5014;SDS011;2526;51.060;4.228;2023-06-22T01:36:30;2.83;;;2.00;;
5014;SDS011;2526;51.060;4.228;2023-06-22T01:38:56;9.00;;;2.80;;
5014;SDS011;2526;51.060;4.228;2023-06-22T01:41:24;4.63;;;2.67;;
5014;SDS011;2526;51.060;4.228;2023-06-22T01:43:50;8.48;;;2.95;;
5014;SDS011;2526;51.060;4.228;2023-06-22T01:46:16;2.22;;;1.75;;
5014;SDS011;2526;51.060;4.228;2023-06-22T01:48:44;4.72;;;2.13;;
5014;SDS011;2526;51.060;4.228;2023-06-22T01:51:10;5.13;;;2.30;;
5014;SDS011;2526;51.060;4.228;2023-06-22T01:53:35;5.65;;;2.38;;
5014;SDS011;2526;51.060;4.228;2023-06-22T01:56:01;3.30;;;1.33;;
5014;SDS011;2526;51.060;4.228;2023-06-22T01:58:27;5.10;;;2.75;;
5014;SDS011;2526;51.060;4.228;2023-06-22T02:00:56;2.95;;;1.95;;
5014;SDS011;2526;51.060;4.228;2023-06-22T02:03:26;2.78;;;1.65;;
5014;SDS011;2526;51.060;4.228;2023-06-22T02:05:54;3.10;;;1.70;;
5014;SDS011;2526;51.060;4.228;2023-06-22T02:08:21;3.10;;;1.95;;
5014;SDS011;2526;51.060;4.228;2023-06-22T02:10:48;3.85;;;2.00;;
5014;SDS011;2526;51.060;4.228;2023-06-22T02:13:13;4.53;;;2.50;;
5014;SDS011;2526;51.060;4.228;2023-06-22T02:15:39;3.40;;;2.25;;
5014;SDS011;2526;51.060;4.228;2023-06-22T02:18:05;4.43;;;2.15;;
5014;SDS011;2526;51.060;4.228;2023-06-22T02:20:31;2.88;;;1.90;;
5014;SDS011;2526;51.060;4.228;2023-06-22T02:22:56;4.53;;;2.85;;
5014;SDS011;2526;51.060;4.228;2023-06-22T02:25:22;5.35;;;2.42;;
5014;SDS011;2526;51.060;4.228;2023-06-22T02:27:47;2.13;;;1.85;;
5014;SDS011;2526;51.060;4.228;2023-06-22T02:30:12;8.73;;;2.47;;
5014;SDS011;2526;51.060;4.228;2023-06-22T02:32:40;2.05;;;1.75;;
5014;SDS011;2526;51.060;4.228;2023-06-22T02:35:10;5.72;;;2.20;;
5014;SDS011;2526;51.060;4.228;2023-06-22T02:37:36;4.82;;;2.80;;
5014;SDS011;2526;51.060;4.228;2023-06-22T02:40:09;2.08;;;1.80;;
5014;SDS011;2526;51.060;4.228;2023-06-22T02:42:36;3.28;;;1.92;;
5014;SDS011;2526;51.060;4.228;2023-06-22T02:45:01;2.58;;;1.40;;
5014;SDS011;2526;51.060;4.228;2023-06-22T02:47:27;3.97;;;2.33;;
5014;SDS011;2526;51.060;4.228;2023-06-22T02:49:52;3.42;;;1.92;;
5014;SDS011;2526;51.060;4.228;2023-06-22T02:52:18;4.40;;;2.03;;
5014;SDS011;2526;51.060;4.228;2023-06-22T02:54:43;4.55;;;3.10;;
5014;SDS011;2526;51.060;4.228;2023-06-22T02:57:11;3.00;;;2.20;;
5014;SDS011;2526;51.060;4.228;2023-06-22T02:59:39;4.75;;;2.13;;
5014;SDS011;2526;51.060;4.228;2023-06-22T03:02:06;3.80;;;2.50;;
5014;SDS011;2526;51.060;4.228;2023-06-22T03:04:31;3.42;;;2.20;;
5014;SDS011;2526;51.060;4.228;2023-06-22T03:06:57;5.90;;;2.05;;
5014;SDS011;2526;51.060;4.228;2023-06-22T03:09:26;4.60;;;2.33;;
5014;SDS011;2526;51.060;4.228;2023-06-22T03:11:53;3.50;;;2.13;;
5014;SDS011;2526;51.060;4.228;2023-06-22T03:14:19;3.40;;;2.10;;
5014;SDS011;2526;51.060;4.228;2023-06-22T03:16:44;4.13;;;2.88;;
5014;SDS011;2526;51.060;4.228;2023-06-22T03:19:09;2.92;;;1.83;;
5014;SDS011;2526;51.060;4.228;2023-06-22T03:21:37;5.95;;;2.75;;
5014;SDS011;2526;51.060;4.228;2023-06-22T03:24:04;2.97;;;2.20;;
5014;SDS011;2526;51.060;4.228;2023-06-22T03:26:29;2.72;;;2.13;;
5014;SDS011;2526;51.060;4.228;2023-06-22T03:28:55;6.60;;;2.35;;
5014;SDS011;2526;51.060;4.228;2023-06-22T03:31:20;2.92;;;2.53;;
5014;SDS011;2526;51.060;4.228;2023-06-22T03:33:47;3.10;;;1.98;;
5014;SDS011;2526;51.060;4.228;2023-06-22T03:36:13;3.03;;;2.17;;
5014;SDS011;2526;51.060;4.228;2023-06-22T03:38:39;5.47;;;3.20;;
5014;SDS011;2526;51.060;4.228;2023-06-22T03:41:04;3.28;;;2.30;;
5014;SDS011;2526;51.060;4.228;2023-06-22T03:43:30;3.25;;;1.95;;
5014;SDS011;2526;51.060;4.228;2023-06-22T03:45:55;2.15;;;1.50;;
5014;SDS011;2526;51.060;4.228;2023-06-22T03:48:20;3.38;;;2.22;;
5014;SDS011;2526;51.060;4.228;2023-06-22T03:50:46;6.97;;;3.10;;
5014;SDS011;2526;51.060;4.228;2023-06-22T03:53:11;4.75;;;2.85;;
5014;SDS011;2526;51.060;4.228;2023-06-22T03:55:40;5.40;;;2.60;;
5014;SDS011;2526;51.060;4.228;2023-06-22T03:58:05;7.20;;;3.13;;
5014;SDS011;2526;51.060;4.228;2023-06-22T04:00:31;4.47;;;2.75;;
5014;SDS011;2526;51.060;4.228;2023-06-22T04:02:57;2.20;;;1.88;;
5014;SDS011;2526;51.060;4.228;2023-06-22T04:05:22;3.45;;;2.35;;
5014;SDS011;2526;51.060;4.228;2023-06-22T04:07:48;4.85;;;2.42;;
5014;SDS011;2526;51.060;4.228;2023-06-22T04:10:13;2.78;;;1.90;;
5014;SDS011;2526;51.060;4.228;2023-06-22T04:12:39;3.20;;;2.05;;
5014;SDS011;2526;51.060;4.228;2023-06-22T04:15:04;4.15;;;2.80;;
5014;SDS011;2526;51.060;4.228;2023-06-22T04:17:30;10.38;;;3.10;;
5014;SDS011;2526;51.060;4.228;2023-06-22T04:19:55;3.45;;;2.90;;
5014;SDS011;2526;51.060;4.228;2023-06-22T04:22:21;3.05;;;2.15;;
5014;SDS011;2526;51.060;4.228;2023-06-22T04:24:46;4.03;;;2.92;;
5014;SDS011;2526;51.060;4.228;2023-06-22T04:27:12;3.42;;;2.40;;
5014;SDS011;2526;51.060;4.228;2023-06-22T04:29:37;6.55;;;2.47;;
5014;SDS011;2526;51.060;4.228;2023-06-22T04:32:08;3.10;;;2.30;;
5014;SDS011;2526;51.060;4.228;2023-06-22T04:34:34;3.97;;;3.10;;
5014;SDS011;2526;51.060;4.228;2023-06-22T04:36:59;5.03;;;3.67;;
5014;SDS011;2526;51.060;4.228;2023-06-22T04:39:25;4.90;;;2.42;;
5014;SDS011;2526;51.060;4.228;2023-06-22T04:41:52;5.82;;;3.22;;
5014;SDS011;2526;51.060;4.228;2023-06-22T04:44:18;6.85;;;3.70;;
5014;SDS011;2526;51.060;4.228;2023-06-22T04:46:58;3.20;;;2.45;;
5014;SDS011;2526;51.060;4.228;2023-06-22T04:49:29;5.53;;;2.78;;
5014;SDS011;2526;51.060;4.228;2023-06-22T04:54:27;4.53;;;3.00;;
5014;SDS011;2526;51.060;4.228;2023-06-22T04:56:53;6.68;;;4.03;;
5014;SDS011;2526;51.060;4.228;2023-06-22T04:59:28;4.53;;;2.80;;
5014;SDS011;2526;51.060;4.228;2023-06-22T05:01:58;4.03;;;2.67;;
5014;SDS011;2526;51.060;4.228;2023-06-22T05:04:24;6.22;;;3.58;;
5014;SDS011;2526;51.060;4.228;2023-06-22T05:06:50;4.10;;;2.67;;
5014;SDS011;2526;51.060;4.228;2023-06-22T05:09:16;4.38;;;2.75;;
5014;SDS011;2526;51.060;4.228;2023-06-22T05:11:42;7.85;;;4.63;;
5014;SDS011;2526;51.060;4.228;2023-06-22T05:14:08;7.18;;;4.40;;
5014;SDS011;2526;51.060;4.228;2023-06-22T05:16:33;5.47;;;3.40;;
5014;SDS011;2526;51.060;4.228;2023-06-22T05:18:59;8.48;;;4.40;;
5014;SDS011;2526;51.060;4.228;2023-06-22T05:21:26;8.25;;;5.07;;
5014;SDS011;2526;51.060;4.228;2023-06-22T05:23:52;5.07;;;3.20;;
5014;SDS011;2526;51.060;4.228;2023-06-22T05:26:18;7.68;;;4.10;;
5014;SDS011;2526;51.060;4.228;2023-06-22T05:28:43;7.35;;;4.07;;
5014;SDS011;2526;51.060;4.228;2023-06-22T05:31:15;19.30;;;6.18;;
5014;SDS011;2526;51.060;4.228;2023-06-22T05:33:41;7.22;;;4.10;;
5014;SDS011;2526;51.060;4.228;2023-06-22T05:36:07;11.85;;;4.55;;
5014;SDS011;2526;51.060;4.228;2023-06-22T05:38:32;5.20;;;3.92;;
5014;SDS011;2526;51.060;4.228;2023-06-22T05:40:58;10.02;;;5.60;;
5014;SDS011;2526;51.060;4.228;2023-06-22T05:43:23;10.05;;;4.95;;
5014;SDS011;2526;51.060;4.228;2023-06-22T05:45:49;5.10;;;3.25;;
5014;SDS011;2526;51.060;4.228;2023-06-22T05:48:14;8.40;;;4.13;;
5014;SDS011;2526;51.060;4.228;2023-06-22T05:50:39;9.43;;;3.85;;
5014;SDS011;2526;51.060;4.228;2023-06-22T05:53:05;5.80;;;4.38;;
5014;SDS011;2526;51.060;4.228;2023-06-22T05:55:32;6.68;;;5.55;;
5014;SDS011;2526;51.060;4.228;2023-06-22T05:57:58;6.47;;;4.97;;
5014;SDS011;2526;51.060;4.228;2023-06-22T06:00:23;7.60;;;4.38;;
5014;SDS011;2526;51.060;4.228;2023-06-22T06:02:49;9.27;;;4.95;;
5014;SDS011;2526;51.060;4.228;2023-06-22T06:05:15;12.45;;;5.65;;
5014;SDS011;2526;51.060;4.228;2023-06-22T06:07:41;11.25;;;5.65;;
5014;SDS011;2526;51.060;4.228;2023-06-22T06:10:07;9.48;;;4.45;;
5014;SDS011;2526;51.060;4.228;2023-06-22T06:12:33;9.60;;;5.50;;
5014;SDS011;2526;51.060;4.228;2023-06-22T06:14:58;6.47;;;4.28;;
5014;SDS011;2526;51.060;4.228;2023-06-22T06:17:24;7.68;;;5.20;;
5014;SDS011;2526;51.060;4.228;2023-06-22T06:19:49;7.85;;;5.65;;
5014;SDS011;2526;51.060;4.228;2023-06-22T06:22:14;10.00;;;5.85;;
5014;SDS011;2526;51.060;4.228;2023-06-22T06:24:40;10.82;;;5.45;;
5014;SDS011;2526;51.060;4.228;2023-06-22T06:27:05;9.23;;;6.40;;
5014;SDS011;2526;51.060;4.228;2023-06-22T06:29:34;7.32;;;5.05;;
5014;SDS011;2526;51.060;4.228;2023-06-22T06:31:59;7.82;;;5.07;;
5014;SDS011;2526;51.060;4.228;2023-06-22T06:34:25;11.07;;;7.32;;
5014;SDS011;2526;51.060;4.228;2023-06-22T06:36:50;12.15;;;5.90;;
5014;SDS011;2526;51.060;4.228;2023-06-22T06:39:16;14.40;;;8.07;;
5014;SDS011;2526;51.060;4.228;2023-06-22T06:41:41;10.68;;;5.78;;
5014;SDS011;2526;51.060;4.228;2023-06-22T06:44:07;9.75;;;7.13;;
5014;SDS011;2526;51.060;4.228;2023-06-22T06:46:32;9.18;;;6.57;;
5014;SDS011;2526;51.060;4.228;2023-06-22T06:48:58;10.10;;;7.30;;
5014;SDS011;2526;51.060;4.228;2023-06-22T06:51:23;12.30;;;7.68;;
5014;SDS011;2526;51.060;4.228;2023-06-22T06:53:49;10.32;;;7.68;;
5014;SDS011;2526;51.060;4.228;2023-06-22T06:56:14;8.30;;;6.22;;
5014;SDS011;2526;51.060;4.228;2023-06-22T06:58:43;15.13;;;9.73;;
5014;SDS011;2526;51.060;4.228;2023-06-22T07:01:11;11.60;;;6.75;;
5014;SDS011;2526;51.060;4.228;2023-06-22T07:03:36;13.35;;;7.80;;
5014;SDS011;2526;51.060;4.228;2023-06-22T07:06:02;10.45;;;8.13;;
5014;SDS011;2526;51.060;4.228;2023-06-22T07:08:27;12.75;;;7.85;;
5014;SDS011;2526;51.060;4.228;2023-06-22T07:10:54;14.77;;;9.57;;
5014;SDS011;2526;51.060;4.228;2023-06-22T07:13:19;12.25;;;9.35;;
5014;SDS011;2526;51.060;4.228;2023-06-22T07:15:45;11.55;;;8.30;;
5014;SDS011;2526;51.060;4.228;2023-06-22T07:18:10;13.82;;;10.18;;
5014;SDS011;2526;51.060;4.228;2023-06-22T07:20:36;13.00;;;10.80;;
5014;SDS011;2526;51.060;4.228;2023-06-22T07:23:01;11.30;;;8.85;;
5014;SDS011;2526;51.060;4.228;2023-06-22T07:25:27;12.77;;;8.75;;
5014;SDS011;2526;51.060;4.228;2023-06-22T07:27:57;12.15;;;9.98;;
5014;SDS011;2526;51.060;4.228;2023-06-22T07:30:23;14.32;;;10.77;;
5014;SDS011;2526;51.060;4.228;2023-06-22T07:32:48;16.70;;;9.27;;
5014;SDS011;2526;51.060;4.228;2023-06-22T07:35:14;10.25;;;8.18;;
5014;SDS011;2526;51.060;4.228;2023-06-22T07:37:41;12.30;;;9.20;;
5014;SDS011;2526;51.060;4.228;2023-06-22T07:40:07;11.48;;;8.43;;
5014;SDS011;2526;51.060;4.228;2023-06-22T07:42:33;15.30;;;10.05;;
5014;SDS011;2526;51.060;4.228;2023-06-22T07:44:58;9.07;;;7.30;;
5014;SDS011;2526;51.060;4.228;2023-06-22T07:47:24;13.25;;;8.70;;
5014;SDS011;2526;51.060;4.228;2023-06-22T07:49:51;18.30;;;9.05;;
5014;SDS011;2526;51.060;4.228;2023-06-22T07:52:19;11.63;;;9.07;;
5014;SDS011;2526;51.060;4.228;2023-06-22T07:54:46;10.10;;;7.45;;
5014;SDS011;2526;51.060;4.228;2023-06-22T07:57:11;11.48;;;8.40;;
5014;SDS011;2526;51.060;4.228;2023-06-22T07:59:37;11.57;;;8.75;;
5014;SDS011;2526;51.060;4.228;2023-06-22T08:02:03;10.30;;;6.72;;
5014;SDS011;2526;51.060;4.228;2023-06-22T08:04:29;15.80;;;7.78;;
5014;SDS011;2526;51.060;4.228;2023-06-22T08:06:56;11.65;;;7.20;;
5014;SDS011;2526;51.060;4.228;2023-06-22T08:09:21;8.07;;;6.93;;
5014;SDS011;2526;51.060;4.228;2023-06-22T08:11:47;10.57;;;6.97;;
5014;SDS011;2526;51.060;4.228;2023-06-22T08:14:13;9.18;;;7.63;;
5014;SDS011;2526;51.060;4.228;2023-06-22T08:16:39;11.40;;;8.07;;
5014;SDS011;2526;51.060;4.228;2023-06-22T08:19:05;13.55;;;8.00;;
5014;SDS011;2526;51.060;4.228;2023-06-22T08:21:31;11.00;;;5.82;;
5014;SDS011;2526;51.060;4.228;2023-06-22T08:23:56;8.05;;;5.75;;
5014;SDS011;2526;51.060;4.228;2023-06-22T08:26:22;15.90;;;7.18;;
5014;SDS011;2526;51.060;4.228;2023-06-22T08:28:48;16.00;;;8.32;;
5014;SDS011;2526;51.060;4.228;2023-06-22T08:31:14;8.30;;;6.57;;
5014;SDS011;2526;51.060;4.228;2023-06-22T08:33:40;12.02;;;7.35;;
5014;SDS011;2526;51.060;4.228;2023-06-22T08:36:05;10.55;;;7.72;;
5014;SDS011;2526;51.060;4.228;2023-06-22T08:38:31;9.90;;;7.93;;
5014;SDS011;2526;51.060;4.228;2023-06-22T08:40:57;12.05;;;6.10;;
5014;SDS011;2526;51.060;4.228;2023-06-22T08:43:22;9.50;;;6.97;;
5014;SDS011;2526;51.060;4.228;2023-06-22T08:45:48;10.23;;;7.15;;
5014;SDS011;2526;51.060;4.228;2023-06-22T08:48:13;10.52;;;6.65;;
5014;SDS011;2526;51.060;4.228;2023-06-22T08:50:39;11.75;;;5.25;;
5014;SDS011;2526;51.060;4.228;2023-06-22T08:53:06;9.85;;;6.10;;
5014;SDS011;2526;51.060;4.228;2023-06-22T08:55:31;8.45;;;5.63;;
5014;SDS011;2526;51.060;4.228;2023-06-22T08:57:56;7.40;;;4.70;;
5014;SDS011;2526;51.060;4.228;2023-06-22T09:00:22;10.27;;;5.85;;
5014;SDS011;2526;51.060;4.228;2023-06-22T09:02:48;18.33;;;7.25;;
5014;SDS011;2526;51.060;4.228;2023-06-22T09:05:14;6.93;;;5.03;;
5014;SDS011;2526;51.060;4.228;2023-06-22T09:07:39;7.65;;;5.32;;
5014;SDS011;2526;51.060;4.228;2023-06-22T09:10:05;8.18;;;5.72;;
5014;SDS011;2526;51.060;4.228;2023-06-22T09:12:31;9.20;;;5.85;;
5014;SDS011;2526;51.060;4.228;2023-06-22T09:14:58;5.63;;;5.05;;
5014;SDS011;2526;51.060;4.228;2023-06-22T09:17:25;10.45;;;5.68;;
5014;SDS011;2526;51.060;4.228;2023-06-22T09:19:51;9.65;;;5.63;;
5014;SDS011;2526;51.060;4.228;2023-06-22T09:22:16;6.47;;;5.13;;
5014;SDS011;2526;51.060;4.228;2023-06-22T09:24:42;9.40;;;5.35;;
5014;SDS011;2526;51.060;4.228;2023-06-22T09:27:08;7.35;;;5.65;;
5014;SDS011;2526;51.060;4.228;2023-06-22T09:29:33;13.70;;;7.82;;
5014;SDS011;2526;51.060;4.228;2023-06-22T09:31:59;8.05;;;7.22;;
5014;SDS011;2526;51.060;4.228;2023-06-22T09:34:25;12.70;;;8.40;;
5014;SDS011;2526;51.060;4.228;2023-06-22T09:36:50;8.55;;;6.15;;
5014;SDS011;2526;51.060;4.228;2023-06-22T09:39:17;8.23;;;6.60;;
5014;SDS011;2526;51.060;4.228;2023-06-22T09:41:42;15.90;;;8.88;;
5014;SDS011;2526;51.060;4.228;2023-06-22T09:44:08;15.95;;;9.60;;
5014;SDS011;2526;51.060;4.228;2023-06-22T09:46:33;15.10;;;10.18;;
5014;SDS011;2526;51.060;4.228;2023-06-22T09:48:59;12.63;;;10.95;;
5014;SDS011;2526;51.060;4.228;2023-06-22T09:51:24;11.00;;;9.88;;
5014;SDS011;2526;51.060;4.228;2023-06-22T09:53:50;17.00;;;10.88;;
5014;SDS011;2526;51.060;4.228;2023-06-22T09:56:16;16.13;;;13.07;;
5014;SDS011;2526;51.060;4.228;2023-06-22T09:58:41;15.63;;;10.25;;
5014;SDS011;2526;51.060;4.228;2023-06-22T10:01:07;17.27;;;8.30;;
5014;SDS011;2526;51.060;4.228;2023-06-22T10:03:33;13.57;;;9.90;;
5014;SDS011;2526;51.060;4.228;2023-06-22T10:05:58;9.52;;;7.30;;
5014;SDS011;2526;51.060;4.228;2023-06-22T10:08:24;14.10;;;10.25;;
5014;SDS011;2526;51.060;4.228;2023-06-22T10:10:49;15.70;;;10.13;;
5014;SDS011;2526;51.060;4.228;2023-06-22T10:13:15;16.20;;;11.15;;
5014;SDS011;2526;51.060;4.228;2023-06-22T10:15:40;15.82;;;11.27;;
5014;SDS011;2526;51.060;4.228;2023-06-22T10:18:06;13.55;;;10.77;;
5014;SDS011;2526;51.060;4.228;2023-06-22T10:20:31;16.23;;;11.02;;
5014;SDS011;2526;51.060;4.228;2023-06-22T10:22:56;13.48;;;10.48;;
5014;SDS011;2526;51.060;4.228;2023-06-22T10:25:22;14.35;;;12.00;;
5014;SDS011;2526;51.060;4.228;2023-06-22T10:27:48;13.75;;;9.52;;
5014;SDS011;2526;51.060;4.228;2023-06-22T10:30:13;11.27;;;9.63;;
5014;SDS011;2526;51.060;4.228;2023-06-22T10:32:39;20.17;;;12.77;;
5014;SDS011;2526;51.060;4.228;2023-06-22T10:35:05;13.15;;;9.90;;
5014;SDS011;2526;51.060;4.228;2023-06-22T10:37:30;10.82;;;9.43;;
5014;SDS011;2526;51.060;4.228;2023-06-22T10:39:56;15.73;;;10.40;;
5014;SDS011;2526;51.060;4.228;2023-06-22T10:42:21;12.00;;;9.25;;
5014;SDS011;2526;51.060;4.228;2023-06-22T10:44:47;11.60;;;8.65;;
5014;SDS011;2526;51.060;4.228;2023-06-22T10:47:13;12.65;;;8.73;;
5014;SDS011;2526;51.060;4.228;2023-06-22T10:49:38;14.90;;;8.63;;
5014;SDS011;2526;51.060;4.228;2023-06-22T10:52:05;18.05;;;9.50;;
5014;SDS011;2526;51.060;4.228;2023-06-22T10:54:32;11.27;;;9.98;;
5014;SDS011;2526;51.060;4.228;2023-06-22T10:56:57;10.65;;;8.50;;
5014;SDS011;2526;51.060;4.228;2023-06-22T10:59:23;12.27;;;9.40;;
5014;SDS011;2526;51.060;4.228;2023-06-22T11:01:49;13.13;;;10.27;;
5014;SDS011;2526;51.060;4.228;2023-06-22T11:04:15;14.60;;;10.35;;
5014;SDS011;2526;51.060;4.228;2023-06-22T11:06:40;12.80;;;9.68;;
5014;SDS011;2526;51.060;4.228;2023-06-22T11:09:06;10.43;;;9.43;;
5014;SDS011;2526;51.060;4.228;2023-06-22T11:11:31;12.45;;;7.40;;
5014;SDS011;2526;51.060;4.228;2023-06-22T11:13:56;15.38;;;10.18;;
5014;SDS011;2526;51.060;4.228;2023-06-22T11:16:22;14.25;;;10.90;;
5014;SDS011;2526;51.060;4.228;2023-06-22T11:18:48;13.15;;;10.90;;
5014;SDS011;2526;51.060;4.228;2023-06-22T11:21:13;17.92;;;12.63;;
5014;SDS011;2526;51.060;4.228;2023-06-22T11:23:38;14.43;;;10.55;;
5014;SDS011;2526;51.060;4.228;2023-06-22T11:26:04;13.40;;;9.35;;
5014;SDS011;2526;51.060;4.228;2023-06-22T11:28:29;17.75;;;9.35;;
5014;SDS011;2526;51.060;4.228;2023-06-22T11:30:55;11.93;;;8.50;;
5014;SDS011;2526;51.060;4.228;2023-06-22T11:33:20;11.90;;;9.20;;
5014;SDS011;2526;51.060;4.228;2023-06-22T11:35:46;11.07;;;8.15;;
5014;SDS011;2526;51.060;4.228;2023-06-22T11:38:11;14.18;;;7.95;;
5014;SDS011;2526;51.060;4.228;2023-06-22T11:40:37;13.60;;;10.48;;
5014;SDS011;2526;51.060;4.228;2023-06-22T11:43:02;10.93;;;8.18;;
5014;SDS011;2526;51.060;4.228;2023-06-22T11:45:28;11.40;;;8.15;;
5014;SDS011;2526;51.060;4.228;2023-06-22T11:47:53;12.35;;;7.95;;
5014;SDS011;2526;51.060;4.228;2023-06-22T11:50:19;14.45;;;8.75;;
5014;SDS011;2526;51.060;4.228;2023-06-22T11:52:44;18.17;;;9.75;;
5014;SDS011;2526;51.060;4.228;2023-06-22T11:55:10;14.93;;;9.63;;
5014;SDS011;2526;51.060;4.228;2023-06-22T11:57:36;11.52;;;9.70;;
5014;SDS011;2526;51.060;4.228;2023-06-22T12:00:03;12.10;;;9.23;;
5014;SDS011;2526;51.060;4.228;2023-06-22T12:02:39;11.88;;;8.10;;
5014;SDS011;2526;51.060;4.228;2023-06-22T12:05:05;8.60;;;7.68;;
5014;SDS011;2526;51.060;4.228;2023-06-22T12:07:31;12.15;;;8.05;;
5014;SDS011;2526;51.060;4.228;2023-06-22T12:09:57;15.93;;;8.77;;
5014;SDS011;2526;51.060;4.228;2023-06-22T12:12:22;13.38;;;7.45;;
5014;SDS011;2526;51.060;4.228;2023-06-22T12:14:48;9.32;;;7.43;;
5014;SDS011;2526;51.060;4.228;2023-06-22T12:17:13;11.35;;;8.00;;
5014;SDS011;2526;51.060;4.228;2023-06-22T12:19:39;9.93;;;7.53;;
5014;SDS011;2526;51.060;4.228;2023-06-22T12:22:04;8.48;;;6.60;;
5014;SDS011;2526;51.060;4.228;2023-06-22T12:24:29;12.30;;;9.13;;
5014;SDS011;2526;51.060;4.228;2023-06-22T12:26:55;9.95;;;8.38;;
5014;SDS011;2526;51.060;4.228;2023-06-22T12:29:21;15.10;;;9.65;;
5014;SDS011;2526;51.060;4.228;2023-06-22T12:31:46;13.70;;;9.75;;
5014;SDS011;2526;51.060;4.228;2023-06-22T12:34:11;15.68;;;9.13;;
5014;SDS011;2526;51.060;4.228;2023-06-22T12:36:37;14.00;;;10.48;;
5014;SDS011;2526;51.060;4.228;2023-06-22T12:39:02;12.35;;;7.38;;
5014;SDS011;2526;51.060;4.228;2023-06-22T12:41:28;13.52;;;9.73;;
5014;SDS011;2526;51.060;4.228;2023-06-22T12:43:53;13.18;;;8.88;;
5014;SDS011;2526;51.060;4.228;2023-06-22T12:46:19;23.77;;;12.18;;
5014;SDS011;2526;51.060;4.228;2023-06-22T12:48:44;17.85;;;11.35;;
5014;SDS011;2526;51.060;4.228;2023-06-22T12:51:10;21.38;;;11.98;;
5014;SDS011;2526;51.060;4.228;2023-06-22T12:53:35;15.68;;;10.20;;
5014;SDS011;2526;51.060;4.228;2023-06-22T12:56:01;17.05;;;13.25;;
5014;SDS011;2526;51.060;4.228;2023-06-22T12:58:26;12.93;;;8.77;;
5014;SDS011;2526;51.060;4.228;2023-06-22T13:00:52;13.57;;;10.00;;
5014;SDS011;2526;51.060;4.228;2023-06-22T13:03:17;12.98;;;9.95;;
5014;SDS011;2526;51.060;4.228;2023-06-22T13:05:42;16.75;;;12.27;;
5014;SDS011;2526;51.060;4.228;2023-06-22T13:08:08;14.10;;;12.52;;
5014;SDS011;2526;51.060;4.228;2023-06-22T13:10:33;15.90;;;12.02;;
5014;SDS011;2526;51.060;4.228;2023-06-22T13:12:59;15.48;;;12.55;;
5014;SDS011;2526;51.060;4.228;2023-06-22T13:15:26;15.45;;;13.32;;
5014;SDS011;2526;51.060;4.228;2023-06-22T13:17:53;23.38;;;12.85;;
5014;SDS011;2526;51.060;4.228;2023-06-22T13:20:19;19.75;;;13.43;;
5014;SDS011;2526;51.060;4.228;2023-06-22T13:22:44;13.82;;;11.63;;
5014;SDS011;2526;51.060;4.228;2023-06-22T13:25:10;22.55;;;13.52;;
5014;SDS011;2526;51.060;4.228;2023-06-22T13:27:40;16.75;;;11.27;;
5014;SDS011;2526;51.060;4.228;2023-06-22T13:30:07;19.90;;;12.77;;
5014;SDS011;2526;51.060;4.228;2023-06-22T13:32:32;11.88;;;10.52;;
5014;SDS011;2526;51.060;4.228;2023-06-22T13:34:58;13.70;;;11.63;;
5014;SDS011;2526;51.060;4.228;2023-06-22T13:37:23;17.10;;;12.10;;
5014;SDS011;2526;51.060;4.228;2023-06-22T13:39:49;18.58;;;15.43;;
5014;SDS011;2526;51.060;4.228;2023-06-22T13:42:14;14.75;;;12.65;;
5014;SDS011;2526;51.060;4.228;2023-06-22T13:44:39;18.52;;;12.85;;
5014;SDS011;2526;51.060;4.228;2023-06-22T13:47:05;19.35;;;13.43;;
5014;SDS011;2526;51.060;4.228;2023-06-22T13:49:31;19.25;;;14.35;;
5014;SDS011;2526;51.060;4.228;2023-06-22T13:51:56;21.23;;;15.55;;
5014;SDS011;2526;51.060;4.228;2023-06-22T13:54:22;22.85;;;14.75;;
5014;SDS011;2526;51.060;4.228;2023-06-22T13:56:47;14.68;;;13.02;;
5014;SDS011;2526;51.060;4.228;2023-06-22T13:59:13;22.63;;;14.13;;
5014;SDS011;2526;51.060;4.228;2023-06-22T14:01:38;23.52;;;14.77;;
5014;SDS011;2526;51.060;4.228;2023-06-22T14:04:05;18.05;;;13.23;;
5014;SDS011;2526;51.060;4.228;2023-06-22T14:06:30;18.25;;;13.30;;
5014;SDS011;2526;51.060;4.228;2023-06-22T14:08:56;23.60;;;16.15;;
5014;SDS011;2526;51.060;4.228;2023-06-22T14:11:21;22.42;;;15.43;;
5014;SDS011;2526;51.060;4.228;2023-06-22T14:13:47;17.70;;;15.48;;
5014;SDS011;2526;51.060;4.228;2023-06-22T14:16:12;20.40;;;15.38;;
5014;SDS011;2526;51.060;4.228;2023-06-22T14:18:38;27.67;;;16.40;;
5014;SDS011;2526;51.060;4.228;2023-06-22T14:21:03;22.65;;;16.38;;
5014;SDS011;2526;51.060;4.228;2023-06-22T14:23:28;20.63;;;14.98;;
5014;SDS011;2526;51.060;4.228;2023-06-22T14:25:54;19.00;;;14.45;;
5014;SDS011;2526;51.060;4.228;2023-06-22T14:28:20;21.17;;;15.70;;
5014;SDS011;2526;51.060;4.228;2023-06-22T14:30:45;18.60;;;13.93;;
5014;SDS011;2526;51.060;4.228;2023-06-22T14:33:11;22.73;;;17.52;;
5014;SDS011;2526;51.060;4.228;2023-06-22T14:35:37;19.33;;;15.05;;
5014;SDS011;2526;51.060;4.228;2023-06-22T14:38:02;21.85;;;17.15;;
5014;SDS011;2526;51.060;4.228;2023-06-22T14:40:28;20.20;;;15.88;;
5014;SDS011;2526;51.060;4.228;2023-06-22T14:42:53;18.52;;;14.75;;
5014;SDS011;2526;51.060;4.228;2023-06-22T14:45:22;20.83;;;17.08;;
5014;SDS011;2526;51.060;4.228;2023-06-22T14:47:47;17.65;;;15.80;;
5014;SDS011;2526;51.060;4.228;2023-06-22T14:50:12;18.25;;;15.43;;
5014;SDS011;2526;51.060;4.228;2023-06-22T14:52:38;21.98;;;14.18;;
5014;SDS011;2526;51.060;4.228;2023-06-22T14:55:03;19.63;;;14.32;;
5014;SDS011;2526;51.060;4.228;2023-06-22T14:57:29;16.27;;;14.20;;
5014;SDS011;2526;51.060;4.228;2023-06-22T14:59:54;18.73;;;13.65;;
5014;SDS011;2526;51.060;4.228;2023-06-22T15:02:20;18.00;;;14.45;;
5014;SDS011;2526;51.060;4.228;2023-06-22T15:04:46;19.85;;;14.02;;
5014;SDS011;2526;51.060;4.228;2023-06-22T15:07:11;21.95;;;15.68;;